sensor_id;sensor_type;location;lat;lon;timestamp;temperature;humidity
11188;DHT22;5650;52.700;7.306;2023-04-03T00:01:48;3.30;99.90
11188;DHT22;5650;52.700;7.306;2023-04-03T00:04:22;3.30;99.90
11188;DHT22;5650;52.700;7.306;2023-04-03T00:06:51;3.30;99.90
11188;DHT22;5650;52.700;7.306;2023-04-03T00:09:18;3.20;99.90
11188;DHT22;5650;52.700;7.306;2023-04-03T00:11:45;3.20;99.90
11188;DHT22;5650;52.700;7.306;2023-04-03T00:14:13;3.20;99.90
11188;DHT22;5650;52.700;7.306;2023-04-03T00:16:43;3.10;99.90
11188;DHT22;5650;52.700;7.306;2023-04-03T00:19:16;3.10;99.90
11188;DHT22;5650;52.700;7.306;2023-04-03T00:21:43;3.10;99.90
11188;DHT22;5650;52.700;7.306;2023-04-03T00:24:15;3.00;99.90
11188;DHT22;5650;52.700;7.306;2023-04-03T00:26:42;3.00;99.90
11188;DHT22;5650;52.700;7.306;2023-04-03T00:29:14;3.00;99.90
11188;DHT22;5650;52.700;7.306;2023-04-03T00:31:42;2.90;99.90
11188;DHT22;5650;52.700;7.306;2023-04-03T00:34:09;2.90;99.90
11188;DHT22;5650;52.700;7.306;2023-04-03T00:36:45;2.90;99.90
11188;DHT22;5650;52.700;7.306;2023-04-03T00:39:16;2.90;99.90
11188;DHT22;5650;52.700;7.306;2023-04-03T00:41:44;2.80;99.90
11188;DHT22;5650;52.700;7.306;2023-04-03T00:44:21;2.80;99.90
11188;DHT22;5650;52.700;7.306;2023-04-03T00:46:49;2.80;99.90
11188;DHT22;5650;52.700;7.306;2023-04-03T00:49:30;2.80;99.90
11188;DHT22;5650;52.700;7.306;2023-04-03T00:51:59;2.70;99.90
11188;DHT22;5650;52.700;7.306;2023-04-03T00:54:28;2.70;99.90
11188;DHT22;5650;52.700;7.306;2023-04-03T00:56:56;2.70;99.90
11188;DHT22;5650;52.700;7.306;2023-04-03T00:59:30;2.60;99.90
11188;DHT22;5650;52.700;7.306;2023-04-03T01:01:58;2.60;99.90
11188;DHT22;5650;52.700;7.306;2023-04-03T01:04:31;2.60;99.90
11188;DHT22;5650;52.700;7.306;2023-04-03T01:07:03;2.50;99.90
11188;DHT22;5650;52.700;7.306;2023-04-03T01:09:34;2.50;99.90
11188;DHT22;5650;52.700;7.306;2023-04-03T01:12:21;2.50;99.90
11188;DHT22;5650;52.700;7.306;2023-04-03T01:14:51;2.50;99.90
11188;DHT22;5650;52.700;7.306;2023-04-03T01:17:33;2.40;99.90
11188;DHT22;5650;52.700;7.306;2023-04-03T01:23:25;2.40;99.90
11188;DHT22;5650;52.700;7.306;2023-04-03T01:25:58;2.40;99.90
11188;DHT22;5650;52.700;7.306;2023-04-03T01:28:33;2.30;99.90
11188;DHT22;5650;52.700;7.306;2023-04-03T01:31:10;2.30;99.90
11188;DHT22;5650;52.700;7.306;2023-04-03T01:33:42;2.20;99.90
11188;DHT22;5650;52.700;7.306;2023-04-03T01:36:13;2.20;99.90
11188;DHT22;5650;52.700;7.306;2023-04-03T01:38:43;2.20;99.90
11188;DHT22;5650;52.700;7.306;2023-04-03T01:41:13;2.20;99.90
11188;DHT22;5650;52.700;7.306;2023-04-03T01:43:44;2.10;99.90
11188;DHT22;5650;52.700;7.306;2023-04-03T01:46:11;2.10;99.90
11188;DHT22;5650;52.700;7.306;2023-04-03T01:48:39;2.10;99.90
11188;DHT22;5650;52.700;7.306;2023-04-03T01:51:14;2.10;99.90
11188;DHT22;5650;52.700;7.306;2023-04-03T01:53:44;2.00;99.90
11188;DHT22;5650;52.700;7.306;2023-04-03T01:56:11;2.00;99.90
11188;DHT22;5650;52.700;7.306;2023-04-03T01:58:39;2.00;99.90
11188;DHT22;5650;52.700;7.306;2023-04-03T02:01:11;2.00;99.90
11188;DHT22;5650;52.700;7.306;2023-04-03T02:03:44;2.00;99.90
11188;DHT22;5650;52.700;7.306;2023-04-03T02:06:13;1.90;99.90
11188;DHT22;5650;52.700;7.306;2023-04-03T02:08:41;1.90;99.90
11188;DHT22;5650;52.700;7.306;2023-04-03T02:11:14;1.90;99.90
11188;DHT22;5650;52.700;7.306;2023-04-03T02:13:41;1.80;99.90
11188;DHT22;5650;52.700;7.306;2023-04-03T02:16:10;1.80;99.90
11188;DHT22;5650;52.700;7.306;2023-04-03T02:18:44;1.80;99.90
11188;DHT22;5650;52.700;7.306;2023-04-03T02:21:17;1.80;99.90
11188;DHT22;5650;52.700;7.306;2023-04-03T02:23:44;1.70;99.90
11188;DHT22;5650;52.700;7.306;2023-04-03T02:26:15;1.70;99.90
11188;DHT22;5650;52.700;7.306;2023-04-03T02:28:43;1.70;99.90
11188;DHT22;5650;52.700;7.306;2023-04-03T02:31:13;1.70;99.90
11188;DHT22;5650;52.700;7.306;2023-04-03T02:33:43;1.60;99.90
11188;DHT22;5650;52.700;7.306;2023-04-03T02:36:17;1.60;99.90
11188;DHT22;5650;52.700;7.306;2023-04-03T02:38:45;1.60;99.90
11188;DHT22;5650;52.700;7.306;2023-04-03T02:41:13;1.60;99.90
11188;DHT22;5650;52.700;7.306;2023-04-03T02:43:47;1.60;99.90
11188;DHT22;5650;52.700;7.306;2023-04-03T02:46:17;1.50;99.90
11188;DHT22;5650;52.700;7.306;2023-04-03T02:48:44;1.50;99.90
11188;DHT22;5650;52.700;7.306;2023-04-03T02:51:11;1.50;99.90
11188;DHT22;5650;52.700;7.306;2023-04-03T02:53:45;1.50;99.90
11188;DHT22;5650;52.700;7.306;2023-04-03T02:56:21;1.40;99.90
11188;DHT22;5650;52.700;7.306;2023-04-03T02:58:52;1.40;99.90
11188;DHT22;5650;52.700;7.306;2023-04-03T03:01:28;1.40;99.90
11188;DHT22;5650;52.700;7.306;2023-04-03T03:04:00;1.40;99.90
11188;DHT22;5650;52.700;7.306;2023-04-03T03:06:36;1.30;99.90
11188;DHT22;5650;52.700;7.306;2023-04-03T03:09:08;1.30;99.90
11188;DHT22;5650;52.700;7.306;2023-04-03T03:11:38;1.30;99.90
11188;DHT22;5650;52.700;7.306;2023-04-03T03:14:06;1.30;99.90
11188;DHT22;5650;52.700;7.306;2023-04-03T03:16:42;1.20;99.90
11188;DHT22;5650;52.700;7.306;2023-04-03T03:19:10;1.20;99.90
11188;DHT22;5650;52.700;7.306;2023-04-03T03:21:41;1.20;99.90
11188;DHT22;5650;52.700;7.306;2023-04-03T03:24:12;1.10;99.90
11188;DHT22;5650;52.700;7.306;2023-04-03T03:26:43;1.10;99.90
11188;DHT22;5650;52.700;7.306;2023-04-03T03:29:16;1.10;99.90
11188;DHT22;5650;52.700;7.306;2023-04-03T03:31:43;1.10;99.90
11188;DHT22;5650;52.700;7.306;2023-04-03T03:34:11;1.00;99.90
11188;DHT22;5650;52.700;7.306;2023-04-03T03:36:38;1.10;99.90
11188;DHT22;5650;52.700;7.306;2023-04-03T03:39:16;1.00;99.90
11188;DHT22;5650;52.700;7.306;2023-04-03T03:41:44;1.00;99.90
11188;DHT22;5650;52.700;7.306;2023-04-03T03:44:17;1.00;99.90
11188;DHT22;5650;52.700;7.306;2023-04-03T03:46:46;1.00;99.90
11188;DHT22;5650;52.700;7.306;2023-04-03T03:49:13;1.00;99.90
11188;DHT22;5650;52.700;7.306;2023-04-03T03:51:41;1.00;99.90
11188;DHT22;5650;52.700;7.306;2023-04-03T03:54:11;1.00;99.90
11188;DHT22;5650;52.700;7.306;2023-04-03T03:56:45;1.00;99.90
11188;DHT22;5650;52.700;7.306;2023-04-03T03:59:12;0.90;99.90
11188;DHT22;5650;52.700;7.306;2023-04-03T04:01:42;0.90;99.90
11188;DHT22;5650;52.700;7.306;2023-04-03T04:04:10;0.90;99.90
11188;DHT22;5650;52.700;7.306;2023-04-03T04:06:39;0.90;99.90
11188;DHT22;5650;52.700;7.306;2023-04-03T04:09:15;0.90;99.90
11188;DHT22;5650;52.700;7.306;2023-04-03T04:11:46;0.90;99.90
11188;DHT22;5650;52.700;7.306;2023-04-03T04:14:13;0.80;99.90
11188;DHT22;5650;52.700;7.306;2023-04-03T04:16:40;0.80;99.90
11188;DHT22;5650;52.700;7.306;2023-04-03T04:19:13;0.80;99.90
11188;DHT22;5650;52.700;7.306;2023-04-03T04:21:43;0.80;99.90
11188;DHT22;5650;52.700;7.306;2023-04-03T04:24:13;0.80;99.90
11188;DHT22;5650;52.700;7.306;2023-04-03T04:26:40;0.80;99.90
11188;DHT22;5650;52.700;7.306;2023-04-03T04:29:12;0.80;99.90
11188;DHT22;5650;52.700;7.306;2023-04-03T04:31:42;0.80;99.90
11188;DHT22;5650;52.700;7.306;2023-04-03T04:34:09;0.80;99.90
11188;DHT22;5650;52.700;7.306;2023-04-03T04:36:41;0.80;99.90
11188;DHT22;5650;52.700;7.306;2023-04-03T04:39:14;0.70;99.90
11188;DHT22;5650;52.700;7.306;2023-04-03T04:41:44;0.70;99.90
11188;DHT22;5650;52.700;7.306;2023-04-03T04:44:15;0.70;99.90
11188;DHT22;5650;52.700;7.306;2023-04-03T04:46:43;0.70;99.90
11188;DHT22;5650;52.700;7.306;2023-04-03T04:49:10;0.70;99.90
11188;DHT22;5650;52.700;7.306;2023-04-03T04:51:37;0.70;99.90
11188;DHT22;5650;52.700;7.306;2023-04-03T04:54:11;0.70;99.90
11188;DHT22;5650;52.700;7.306;2023-04-03T04:56:44;0.70;99.90
11188;DHT22;5650;52.700;7.306;2023-04-03T04:59:16;0.70;99.90
11188;DHT22;5650;52.700;7.306;2023-04-03T05:01:43;0.60;99.90
11188;DHT22;5650;52.700;7.306;2023-04-03T05:04:10;0.70;99.90
11188;DHT22;5650;52.700;7.306;2023-04-03T05:06:41;0.60;99.90
11188;DHT22;5650;52.700;7.306;2023-04-03T05:09:11;0.60;99.90
11188;DHT22;5650;52.700;7.306;2023-04-03T05:11:42;0.60;99.90
11188;DHT22;5650;52.700;7.306;2023-04-03T05:14:12;0.60;99.90
11188;DHT22;5650;52.700;7.306;2023-04-03T05:16:48;0.60;99.90
11188;DHT22;5650;52.700;7.306;2023-04-03T05:19:18;0.60;99.90
11188;DHT22;5650;52.700;7.306;2023-04-03T05:21:49;0.60;99.90
11188;DHT22;5650;52.700;7.306;2023-04-03T05:24:16;0.60;99.90
11188;DHT22;5650;52.700;7.306;2023-04-03T05:26:43;0.70;99.90
11188;DHT22;5650;52.700;7.306;2023-04-03T05:29:11;0.70;99.90
11188;DHT22;5650;52.700;7.306;2023-04-03T05:31:45;0.70;99.90
11188;DHT22;5650;52.700;7.306;2023-04-03T05:34:19;0.70;99.90
11188;DHT22;5650;52.700;7.306;2023-04-03T05:36:46;0.70;99.90
11188;DHT22;5650;52.700;7.306;2023-04-03T05:39:13;0.70;99.90
11188;DHT22;5650;52.700;7.306;2023-04-03T05:41:43;0.80;99.90
11188;DHT22;5650;52.700;7.306;2023-04-03T05:44:16;0.80;99.90
11188;DHT22;5650;52.700;7.306;2023-04-03T05:46:45;0.90;99.90
11188;DHT22;5650;52.700;7.306;2023-04-03T05:49:13;1.30;99.90
11188;DHT22;5650;52.700;7.306;2023-04-03T05:51:40;2.10;99.90
11188;DHT22;5650;52.700;7.306;2023-04-03T05:54:18;3.00;99.90
11188;DHT22;5650;52.700;7.306;2023-04-03T05:56:55;3.80;99.90
11188;DHT22;5650;52.700;7.306;2023-04-03T05:59:24;4.60;99.90
11188;DHT22;5650;52.700;7.306;2023-04-03T06:01:56;5.20;99.90
11188;DHT22;5650;52.700;7.306;2023-04-03T06:04:29;5.80;99.90
11188;DHT22;5650;52.700;7.306;2023-04-03T06:06:57;6.20;99.90
11188;DHT22;5650;52.700;7.306;2023-04-03T06:09:26;6.70;99.90
11188;DHT22;5650;52.700;7.306;2023-04-03T06:11:57;7.10;99.90
11188;DHT22;5650;52.700;7.306;2023-04-03T06:14:31;7.40;99.90
11188;DHT22;5650;52.700;7.306;2023-04-03T06:17:02;7.50;99.90
11188;DHT22;5650;52.700;7.306;2023-04-03T06:19:35;7.70;99.90
11188;DHT22;5650;52.700;7.306;2023-04-03T06:22:03;8.00;99.90
11188;DHT22;5650;52.700;7.306;2023-04-03T06:24:30;8.30;99.90
11188;DHT22;5650;52.700;7.306;2023-04-03T06:27:01;8.50;99.90
11188;DHT22;5650;52.700;7.306;2023-04-03T06:29:28;8.60;99.90
11188;DHT22;5650;52.700;7.306;2023-04-03T06:31:55;8.80;99.90
11188;DHT22;5650;52.700;7.306;2023-04-03T06:34:24;9.10;99.90
11188;DHT22;5650;52.700;7.306;2023-04-03T06:36:51;8.90;99.90
11188;DHT22;5650;52.700;7.306;2023-04-03T06:39:20;9.10;99.90
11188;DHT22;5650;52.700;7.306;2023-04-03T06:41:51;9.20;99.90
11188;DHT22;5650;52.700;7.306;2023-04-03T06:44:18;9.20;99.90
11188;DHT22;5650;52.700;7.306;2023-04-03T06:46:48;9.00;99.90
11188;DHT22;5650;52.700;7.306;2023-04-03T06:49:17;8.90;99.90
11188;DHT22;5650;52.700;7.306;2023-04-03T06:51:48;8.80;99.90
11188;DHT22;5650;52.700;7.306;2023-04-03T06:54:16;8.80;99.90
11188;DHT22;5650;52.700;7.306;2023-04-03T06:56:53;8.70;99.90
11188;DHT22;5650;52.700;7.306;2023-04-03T06:59:26;8.80;99.90
11188;DHT22;5650;52.700;7.306;2023-04-03T07:01:59;8.60;99.90
11188;DHT22;5650;52.700;7.306;2023-04-03T07:04:26;8.60;99.90
11188;DHT22;5650;52.700;7.306;2023-04-03T07:06:55;8.30;99.90
11188;DHT22;5650;52.700;7.306;2023-04-03T07:09:23;8.30;99.90
11188;DHT22;5650;52.700;7.306;2023-04-03T07:11:50;8.30;99.90
11188;DHT22;5650;52.700;7.306;2023-04-03T07:14:17;8.40;99.90
11188;DHT22;5650;52.700;7.306;2023-04-03T07:16:44;8.40;99.90
11188;DHT22;5650;52.700;7.306;2023-04-03T07:19:11;8.40;99.90
11188;DHT22;5650;52.700;7.306;2023-04-03T07:21:39;8.20;99.90
11188;DHT22;5650;52.700;7.306;2023-04-03T07:24:12;8.10;99.90
11188;DHT22;5650;52.700;7.306;2023-04-03T07:26:49;8.10;99.90
11188;DHT22;5650;52.700;7.306;2023-04-03T07:29:19;8.00;99.80
11188;DHT22;5650;52.700;7.306;2023-04-03T07:31:54;7.80;99.90
11188;DHT22;5650;52.700;7.306;2023-04-03T07:34:25;7.90;99.90
11188;DHT22;5650;52.700;7.306;2023-04-03T07:36:55;8.00;99.90
11188;DHT22;5650;52.700;7.306;2023-04-03T07:39:26;7.80;99.70
11188;DHT22;5650;52.700;7.306;2023-04-03T07:41:54;7.70;99.90
11188;DHT22;5650;52.700;7.306;2023-04-03T07:44:22;7.70;99.90
11188;DHT22;5650;52.700;7.306;2023-04-03T07:46:52;7.70;99.90
11188;DHT22;5650;52.700;7.306;2023-04-03T07:49:20;7.70;99.90
11188;DHT22;5650;52.700;7.306;2023-04-03T07:51:51;7.80;99.90
11188;DHT22;5650;52.700;7.306;2023-04-03T07:54:21;7.90;99.80
11188;DHT22;5650;52.700;7.306;2023-04-03T07:56:50;8.00;99.90
11188;DHT22;5650;52.700;7.306;2023-04-03T07:59:17;8.00;99.60
11188;DHT22;5650;52.700;7.306;2023-04-03T08:01:57;7.80;99.10
11188;DHT22;5650;52.700;7.306;2023-04-03T08:04:24;7.60;99.30
11188;DHT22;5650;52.700;7.306;2023-04-03T08:06:51;7.50;99.40
11188;DHT22;5650;52.700;7.306;2023-04-03T08:09:21;7.60;99.50
11188;DHT22;5650;52.700;7.306;2023-04-03T08:11:54;7.50;99.40
11188;DHT22;5650;52.700;7.306;2023-04-03T08:14:24;7.50;99.80
11188;DHT22;5650;52.700;7.306;2023-04-03T08:16:52;7.80;99.80
11188;DHT22;5650;52.700;7.306;2023-04-03T08:19:21;8.00;99.00
11188;DHT22;5650;52.700;7.306;2023-04-03T08:21:48;8.00;98.30
11188;DHT22;5650;52.700;7.306;2023-04-03T08:24:16;8.00;98.20
11188;DHT22;5650;52.700;7.306;2023-04-03T08:26:49;7.90;97.70
11188;DHT22;5650;52.700;7.306;2023-04-03T08:29:20;7.90;97.90
11188;DHT22;5650;52.700;7.306;2023-04-03T08:31:48;8.00;97.60
11188;DHT22;5650;52.700;7.306;2023-04-03T08:34:16;8.30;97.80
11188;DHT22;5650;52.700;7.306;2023-04-03T08:36:43;8.40;97.60
11188;DHT22;5650;52.700;7.306;2023-04-03T08:39:11;8.60;97.00
11188;DHT22;5650;52.700;7.306;2023-04-03T08:41:39;8.60;96.00
11188;DHT22;5650;52.700;7.306;2023-04-03T08:44:15;8.60;95.70
11188;DHT22;5650;52.700;7.306;2023-04-03T08:47:04;8.60;95.60
11188;DHT22;5650;52.700;7.306;2023-04-03T08:49:33;8.60;95.50
11188;DHT22;5650;52.700;7.306;2023-04-03T08:52:05;8.60;95.60
11188;DHT22;5650;52.700;7.306;2023-04-03T08:54:56;8.40;96.00
11188;DHT22;5650;52.700;7.306;2023-04-03T08:57:32;8.10;95.90
11188;DHT22;5650;52.700;7.306;2023-04-03T09:00:06;7.90;96.20
11188;DHT22;5650;52.700;7.306;2023-04-03T09:02:41;7.70;95.50
11188;DHT22;5650;52.700;7.306;2023-04-03T09:05:15;7.50;95.50
11188;DHT22;5650;52.700;7.306;2023-04-03T09:07:44;7.40;96.20
11188;DHT22;5650;52.700;7.306;2023-04-03T09:10:15;7.30;95.10
11188;DHT22;5650;52.700;7.306;2023-04-03T09:12:48;7.30;95.90
11188;DHT22;5650;52.700;7.306;2023-04-03T09:15:21;7.30;96.30
11188;DHT22;5650;52.700;7.306;2023-04-03T09:18:04;7.40;96.20
11188;DHT22;5650;52.700;7.306;2023-04-03T09:20:49;7.40;96.20
11188;DHT22;5650;52.700;7.306;2023-04-03T09:23:33;7.50;96.00
11188;DHT22;5650;52.700;7.306;2023-04-03T09:26:11;7.50;94.40
11188;DHT22;5650;52.700;7.306;2023-04-03T09:28:42;7.50;94.70
11188;DHT22;5650;52.700;7.306;2023-04-03T09:31:22;7.60;94.30
11188;DHT22;5650;52.700;7.306;2023-04-03T09:33:57;7.60;94.30
11188;DHT22;5650;52.700;7.306;2023-04-03T09:36:46;7.60;94.20
11188;DHT22;5650;52.700;7.306;2023-04-03T09:39:15;7.50;94.00
11188;DHT22;5650;52.700;7.306;2023-04-03T09:41:58;7.50;94.40
11188;DHT22;5650;52.700;7.306;2023-04-03T09:44:29;7.50;94.90
11188;DHT22;5650;52.700;7.306;2023-04-03T09:46:57;7.50;95.10
11188;DHT22;5650;52.700;7.306;2023-04-03T09:49:26;7.60;94.70
11188;DHT22;5650;52.700;7.306;2023-04-03T09:51:56;7.70;94.60
11188;DHT22;5650;52.700;7.306;2023-04-03T09:54:37;7.80;94.50
11188;DHT22;5650;52.700;7.306;2023-04-03T09:57:11;7.90;94.10
11188;DHT22;5650;52.700;7.306;2023-04-03T09:59:45;7.90;94.10
11188;DHT22;5650;52.700;7.306;2023-04-03T10:02:40;7.90;94.40
11188;DHT22;5650;52.700;7.306;2023-04-03T10:08:28;7.90;93.50
11188;DHT22;5650;52.700;7.306;2023-04-03T10:11:17;7.90;94.00
11188;DHT22;5650;52.700;7.306;2023-04-03T10:13:52;7.90;93.90
11188;DHT22;5650;52.700;7.306;2023-04-03T10:16:26;7.90;93.70
11188;DHT22;5650;52.700;7.306;2023-04-03T10:19:14;7.90;93.40
11188;DHT22;5650;52.700;7.306;2023-04-03T10:21:50;7.90;93.40
11188;DHT22;5650;52.700;7.306;2023-04-03T10:24:23;7.80;93.80
11188;DHT22;5650;52.700;7.306;2023-04-03T10:26:58;7.90;94.10
11188;DHT22;5650;52.700;7.306;2023-04-03T10:29:38;7.90;94.00
11188;DHT22;5650;52.700;7.306;2023-04-03T10:32:47;8.00;94.10
11188;DHT22;5650;52.700;7.306;2023-04-03T10:35:21;8.10;93.20
11188;DHT22;5650;52.700;7.306;2023-04-03T10:38:02;8.20;93.50
11188;DHT22;5650;52.700;7.306;2023-04-03T10:40:34;8.20;92.50
11188;DHT22;5650;52.700;7.306;2023-04-03T10:43:15;8.10;92.50
11188;DHT22;5650;52.700;7.306;2023-04-03T10:45:51;8.10;91.70
11188;DHT22;5650;52.700;7.306;2023-04-03T10:48:36;8.10;91.70
11188;DHT22;5650;52.700;7.306;2023-04-03T10:51:18;8.10;91.20
11188;DHT22;5650;52.700;7.306;2023-04-03T10:54:02;8.10;90.70
11188;DHT22;5650;52.700;7.306;2023-04-03T10:56:37;8.10;90.80
11188;DHT22;5650;52.700;7.306;2023-04-03T10:59:23;8.30;91.40
11188;DHT22;5650;52.700;7.306;2023-04-03T11:01:55;8.40;91.50
11188;DHT22;5650;52.700;7.306;2023-04-03T11:04:29;8.50;90.90
11188;DHT22;5650;52.700;7.306;2023-04-03T11:07:01;8.50;91.10
11188;DHT22;5650;52.700;7.306;2023-04-03T11:09:32;8.60;91.30
11188;DHT22;5650;52.700;7.306;2023-04-03T11:12:18;8.60;91.40
11188;DHT22;5650;52.700;7.306;2023-04-03T11:14:48;8.70;91.10
11188;DHT22;5650;52.700;7.306;2023-04-03T11:17:24;8.70;90.90
11188;DHT22;5650;52.700;7.306;2023-04-03T11:20:01;8.70;91.10
11188;DHT22;5650;52.700;7.306;2023-04-03T11:22:34;8.70;90.80
11188;DHT22;5650;52.700;7.306;2023-04-03T11:25:15;8.60;90.80
11188;DHT22;5650;52.700;7.306;2023-04-03T11:27:49;8.60;91.00
11188;DHT22;5650;52.700;7.306;2023-04-03T11:30:20;8.70;91.20
11188;DHT22;5650;52.700;7.306;2023-04-03T11:33:24;8.60;90.70
11188;DHT22;5650;52.700;7.306;2023-04-03T11:36:02;8.50;90.90
11188;DHT22;5650;52.700;7.306;2023-04-03T11:38:38;8.50;91.10
11188;DHT22;5650;52.700;7.306;2023-04-03T11:41:10;8.60;90.60
11188;DHT22;5650;52.700;7.306;2023-04-03T11:43:41;8.70;90.30
11188;DHT22;5650;52.700;7.306;2023-04-03T11:46:09;8.70;89.90
11188;DHT22;5650;52.700;7.306;2023-04-03T11:48:55;8.70;90.00
11188;DHT22;5650;52.700;7.306;2023-04-03T11:51:43;8.70;90.00
11188;DHT22;5650;52.700;7.306;2023-04-03T11:54:44;8.60;90.30
11188;DHT22;5650;52.700;7.306;2023-04-03T11:57:50;8.50;90.50
11188;DHT22;5650;52.700;7.306;2023-04-03T12:00:53;8.60;91.00
11188;DHT22;5650;52.700;7.306;2023-04-03T12:06:50;8.70;90.20
11188;DHT22;5650;52.700;7.306;2023-04-03T12:12:35;8.60;90.20
11188;DHT22;5650;52.700;7.306;2023-04-03T12:15:41;8.50;89.90
11188;DHT22;5650;52.700;7.306;2023-04-03T12:18:40;8.40;89.70
11188;DHT22;5650;52.700;7.306;2023-04-03T12:21:11;8.30;90.40
11188;DHT22;5650;52.700;7.306;2023-04-03T12:24:05;8.40;91.10
11188;DHT22;5650;52.700;7.306;2023-04-03T12:27:10;8.50;90.60
11188;DHT22;5650;52.700;7.306;2023-04-03T12:29:46;8.60;89.40
11188;DHT22;5650;52.700;7.306;2023-04-03T12:32:26;8.60;88.60
11188;DHT22;5650;52.700;7.306;2023-04-03T12:35:18;8.60;89.00
11188;DHT22;5650;52.700;7.306;2023-04-03T12:38:22;8.70;87.40
11188;DHT22;5650;52.700;7.306;2023-04-03T12:40:58;8.80;88.10
11188;DHT22;5650;52.700;7.306;2023-04-03T12:43:43;8.80;87.70
11188;DHT22;5650;52.700;7.306;2023-04-03T12:46:17;8.90;88.60
11188;DHT22;5650;52.700;7.306;2023-04-03T12:48:57;9.10;88.00
11188;DHT22;5650;52.700;7.306;2023-04-03T12:51:30;9.20;87.60
11188;DHT22;5650;52.700;7.306;2023-04-03T12:54:03;9.20;87.00
11188;DHT22;5650;52.700;7.306;2023-04-03T12:56:32;9.20;87.50
11188;DHT22;5650;52.700;7.306;2023-04-03T12:59:16;9.20;86.20
11188;DHT22;5650;52.700;7.306;2023-04-03T13:01:53;9.20;85.80
11188;DHT22;5650;52.700;7.306;2023-04-03T13:04:26;9.10;85.20
11188;DHT22;5650;52.700;7.306;2023-04-03T13:06:57;9.10;85.80
11188;DHT22;5650;52.700;7.306;2023-04-03T13:09:26;9.10;86.20
11188;DHT22;5650;52.700;7.306;2023-04-03T13:11:58;9.20;87.10
11188;DHT22;5650;52.700;7.306;2023-04-03T13:14:35;9.30;85.90
11188;DHT22;5650;52.700;7.306;2023-04-03T13:17:12;9.20;84.30
11188;DHT22;5650;52.700;7.306;2023-04-03T13:19:45;9.20;84.90
11188;DHT22;5650;52.700;7.306;2023-04-03T13:22:26;9.20;85.10
11188;DHT22;5650;52.700;7.306;2023-04-03T13:24:56;9.20;85.50
11188;DHT22;5650;52.700;7.306;2023-04-03T13:27:30;9.30;86.10
11188;DHT22;5650;52.700;7.306;2023-04-03T13:29:59;9.30;86.30
11188;DHT22;5650;52.700;7.306;2023-04-03T13:32:29;9.40;86.30
11188;DHT22;5650;52.700;7.306;2023-04-03T13:35:01;9.40;86.70
11188;DHT22;5650;52.700;7.306;2023-04-03T13:37:34;9.50;87.40
11188;DHT22;5650;52.700;7.306;2023-04-03T13:40:11;9.60;87.10
11188;DHT22;5650;52.700;7.306;2023-04-03T13:42:40;9.70;86.10
11188;DHT22;5650;52.700;7.306;2023-04-03T13:45:26;9.70;86.10
11188;DHT22;5650;52.700;7.306;2023-04-03T13:48:15;9.80;85.70
11188;DHT22;5650;52.700;7.306;2023-04-03T13:51:01;9.70;85.80
11188;DHT22;5650;52.700;7.306;2023-04-03T13:53:30;9.60;85.20
11188;DHT22;5650;52.700;7.306;2023-04-03T13:56:16;9.60;85.60
11188;DHT22;5650;52.700;7.306;2023-04-03T13:59:00;9.50;85.60
11188;DHT22;5650;52.700;7.306;2023-04-03T14:01:37;9.50;86.60
11188;DHT22;5650;52.700;7.306;2023-04-03T14:04:17;9.50;86.50
11188;DHT22;5650;52.700;7.306;2023-04-03T14:06:47;9.60;86.20
11188;DHT22;5650;52.700;7.306;2023-04-03T14:09:22;9.60;84.60
11188;DHT22;5650;52.700;7.306;2023-04-03T14:11:53;9.50;84.20
11188;DHT22;5650;52.700;7.306;2023-04-03T14:14:31;9.50;83.90
11188;DHT22;5650;52.700;7.306;2023-04-03T14:17:03;9.40;83.70
11188;DHT22;5650;52.700;7.306;2023-04-03T14:19:43;9.50;84.80
11188;DHT22;5650;52.700;7.306;2023-04-03T14:22:16;9.50;84.70
11188;DHT22;5650;52.700;7.306;2023-04-03T14:24:48;9.50;85.30
11188;DHT22;5650;52.700;7.306;2023-04-03T14:27:18;9.50;85.50
11188;DHT22;5650;52.700;7.306;2023-04-03T14:29:46;9.50;86.20
11188;DHT22;5650;52.700;7.306;2023-04-03T14:32:15;9.60;86.10
11188;DHT22;5650;52.700;7.306;2023-04-03T14:34:46;9.70;86.00
11188;DHT22;5650;52.700;7.306;2023-04-03T14:37:19;9.70;85.30
11188;DHT22;5650;52.700;7.306;2023-04-03T14:39:48;9.80;84.30
11188;DHT22;5650;52.700;7.306;2023-04-03T14:42:32;9.70;84.00
11188;DHT22;5650;52.700;7.306;2023-04-03T14:45:01;9.70;83.60
11188;DHT22;5650;52.700;7.306;2023-04-03T14:47:29;9.70;84.20
11188;DHT22;5650;52.700;7.306;2023-04-03T14:50:00;9.60;83.90
11188;DHT22;5650;52.700;7.306;2023-04-03T14:52:35;9.70;84.80
11188;DHT22;5650;52.700;7.306;2023-04-03T14:55:04;9.70;84.20
11188;DHT22;5650;52.700;7.306;2023-04-03T14:57:39;9.70;83.90
11188;DHT22;5650;52.700;7.306;2023-04-03T15:00:13;9.70;84.40
11188;DHT22;5650;52.700;7.306;2023-04-03T15:02:41;9.80;83.50
11188;DHT22;5650;52.700;7.306;2023-04-03T15:05:09;9.70;83.30
11188;DHT22;5650;52.700;7.306;2023-04-03T15:07:47;9.60;83.00
11188;DHT22;5650;52.700;7.306;2023-04-03T15:10:20;9.40;82.20
11188;DHT22;5650;52.700;7.306;2023-04-03T15:12:48;9.40;83.10
11188;DHT22;5650;52.700;7.306;2023-04-03T15:15:17;9.40;84.10
11188;DHT22;5650;52.700;7.306;2023-04-03T15:17:46;9.40;84.00
11188;DHT22;5650;52.700;7.306;2023-04-03T15:20:16;9.40;84.10
11188;DHT22;5650;52.700;7.306;2023-04-03T15:22:46;9.50;84.30
11188;DHT22;5650;52.700;7.306;2023-04-03T15:25:13;9.50;84.10
11188;DHT22;5650;52.700;7.306;2023-04-03T15:27:47;9.50;83.50
11188;DHT22;5650;52.700;7.306;2023-04-03T15:30:19;9.60;82.80
11188;DHT22;5650;52.700;7.306;2023-04-03T15:32:47;9.60;84.00
11188;DHT22;5650;52.700;7.306;2023-04-03T15:35:15;9.50;82.10
11188;DHT22;5650;52.700;7.306;2023-04-03T15:37:46;9.50;81.30
11188;DHT22;5650;52.700;7.306;2023-04-03T15:40:14;9.40;80.50
11188;DHT22;5650;52.700;7.306;2023-04-03T15:42:44;9.50;81.00
11188;DHT22;5650;52.700;7.306;2023-04-03T15:45:11;9.50;81.80
11188;DHT22;5650;52.700;7.306;2023-04-03T15:47:38;9.50;83.20
11188;DHT22;5650;52.700;7.306;2023-04-03T15:50:06;9.50;82.40
11188;DHT22;5650;52.700;7.306;2023-04-03T15:52:36;9.50;82.60
11188;DHT22;5650;52.700;7.306;2023-04-03T15:55:05;9.60;82.90
11188;DHT22;5650;52.700;7.306;2023-04-03T15:57:33;9.50;82.50
11188;DHT22;5650;52.700;7.306;2023-04-03T16:00:06;9.50;81.80
11188;DHT22;5650;52.700;7.306;2023-04-03T16:02:36;9.50;82.10
11188;DHT22;5650;52.700;7.306;2023-04-03T16:05:03;9.40;82.00
11188;DHT22;5650;52.700;7.306;2023-04-03T16:07:40;9.40;82.10
11188;DHT22;5650;52.700;7.306;2023-04-03T16:10:10;9.40;82.30
11188;DHT22;5650;52.700;7.306;2023-04-03T16:12:37;9.30;82.60
11188;DHT22;5650;52.700;7.306;2023-04-03T16:15:05;9.30;83.10
11188;DHT22;5650;52.700;7.306;2023-04-03T16:17:37;9.30;82.90
11188;DHT22;5650;52.700;7.306;2023-04-03T16:20:14;9.30;83.50
11188;DHT22;5650;52.700;7.306;2023-04-03T16:22:42;9.30;83.30
11188;DHT22;5650;52.700;7.306;2023-04-03T16:25:11;9.30;83.40
11188;DHT22;5650;52.700;7.306;2023-04-03T16:27:40;9.30;83.80
11188;DHT22;5650;52.700;7.306;2023-04-03T16:30:08;9.30;84.10
11188;DHT22;5650;52.700;7.306;2023-04-03T16:32:42;9.20;83.60
11188;DHT22;5650;52.700;7.306;2023-04-03T16:35:10;9.20;83.60
11188;DHT22;5650;52.700;7.306;2023-04-03T16:37:40;9.10;83.60
11188;DHT22;5650;52.700;7.306;2023-04-03T16:40:11;9.10;84.50
11188;DHT22;5650;52.700;7.306;2023-04-03T16:42:47;9.10;84.90
11188;DHT22;5650;52.700;7.306;2023-04-03T16:45:18;9.10;85.70
11188;DHT22;5650;52.700;7.306;2023-04-03T16:47:51;9.10;84.90
11188;DHT22;5650;52.700;7.306;2023-04-03T16:50:18;9.00;84.90
11188;DHT22;5650;52.700;7.306;2023-04-03T16:52:45;9.00;85.60